首页
METAR-TAF:

METAR-TAF

机场 :

維泰博, 意大利

纬度: 42-26N, 经度: 012-03E, 海拔: 300米

当前天气观测

该预报发布于45分钟前的10:55 UTC
风速5节,风向北转东北
温度 10°C
湿度 87%
气压 1020 hPa
能見度: 8000
少量云层高于2200英尺

METAR: LIRV 261055Z 03005KT 8000 FEW022 10/08 Q1020 RMK BKN BKN200 MON E SE INVIS NC VIS MIN 8000 WIND THR04 /////KT BLU

时间: 12:40 (11:40 UTC)

预报

该预报发布于40分钟前的11:00 UTC
预报有效从26日的 12点(UTC)到 26日的 21点(UTC)
风速6节,风向东北
能見度: 8000
散云层高于2000英尺
散云层高于5000英尺
短暂存在
从 26日的 12点(UTC)到 26日的 15点(UTC)

TAF: LIRV 261100Z 2612/2621 04006KT 8000 SCT020 SCT050 TEMPO 2612/2615 RA

超过4000个机场的气象观测和天气预报(METAR&TAF报告)。

可查询的气象台以黄色和红色小点在地图上表示。

将鼠标移到小点上方,可查看气象台名称。

然后点击查看天气观测和预报。

如需切换地图:点击带黑十字的绿色按钮放大地图;点击带横线的绿色按钮缩小地图;或者点击绿色箭头查看邻近地区的地图。


METAR-TAF: